Time;durP1;ratioP1;P1;durP2;ratioP2;P2;SDS_P1;SDS_P2;PMS_P1;PMS_P2;Temp;Humidity;BMP_temperature;BMP_pressure;BME280_temperature;BME280_humidity;BME280_pressure;Samples;Min_cycle;Max_cycle;Signal;HPM_P1;HPM_P2
2022/06/04 00:00:00;;;;;;;0.2;0.2;;;;;;;16.8;100.0;101570;;;;
2022/06/04 00:01:00;;;;;;;0.2;0.2;;;;;;;16.8;100.0;101570;;;;
2022/06/04 00:02:00;;;;;;;0.2;0.2;;;;;;;16.9;100.0;101570;;;;
2022/06/04 00:03:00;;;;;;;0.2;0.2;;;;;;;16.9;100.0;101570;;;;
2022/06/04 00:04:00;;;;;;;0.2;0.2;;;;;;;16.7;100.0;101580;;;;
2022/06/04 00:05:00;;;;;;;0.2;0.2;;;;;;;16.7;100.0;101580;;;;
2022/06/04 00:06:00;;;;;;;0.2;0.2;;;;;;;16.8;100.0;101580;;;;
2022/06/04 00:07:00;;;;;;;0.2;0.2;;;;;;;16.8;100.0;101580;;;;
2022/06/04 00:08:00;;;;;;;0.2;0.2;;;;;;;16.9;100.0;101580;;;;
2022/06/04 00:09:00;;;;;;;0.2;0.2;;;;;;;16.9;100.0;101580;;;;
2022/06/04 00:16:00;;;;;;;0.2;0.2;;;;;;;16.8;100.0;101560;;;;
2022/06/04 00:17:00;;;;;;;0.2;0.2;;;;;;;16.8;100.0;101560;;;;
2022/06/04 00:18:00;;;;;;;0.2;0.2;;;;;;;16.7;100.0;101560;;;;
2022/06/04 00:19:00;;;;;;;0.2;0.2;;;;;;;16.7;100.0;101560;;;;
2022/06/04 00:20:01;;;;;;;0.2;0.2;;;;;;;16.6;100.0;101570;;;;
2022/06/04 00:21:00;;;;;;;0.2;0.2;;;;;;;16.6;100.0;101570;;;;
2022/06/04 00:22:01;;;;;;;0.2;0.2;;;;;;;16.6;100.0;101560;;;;
2022/06/04 00:23:01;;;;;;;0.2;0.2;;;;;;;16.6;100.0;101560;;;;
2022/06/04 00:24:00;;;;;;;0.2;0.2;;;;;;;16.6;100.0;101560;;;;
2022/06/04 00:25:00;;;;;;;0.2;0.2;;;;;;;16.6;100.0;101560;;;;
2022/06/04 00:26:00;;;;;;;0.2;0.2;;;;;;;16.5;100.0;101560;;;;
2022/06/04 00:27:00;;;;;;;0.5;0.5;;;;;;;16.5;100.0;101560;;;;
2022/06/04 00:28:01;;;;;;;0.5;0.5;;;;;;;16.3;100.0;101550;;;;
2022/06/04 00:29:00;;;;;;;0.5;0.5;;;;;;;16.3;100.0;101550;;;;
2022/06/04 00:30:00;;;;;;;0.5;0.5;;;;;;;16.3;100.0;101550;;;;
2022/06/04 00:31:00;;;;;;;0.5;0.5;;;;;;;16.3;100.0;101550;;;;
2022/06/04 00:32:00;;;;;;;0.5;0.5;;;;;;;16.4;100.0;101560;;;;
2022/06/04 00:33:00;;;;;;;0.5;0.5;;;;;;;16.4;100.0;101560;;;;
2022/06/04 00:34:00;;;;;;;0.5;0.5;;;;;;;16.4;100.0;101560;;;;
2022/06/04 00:35:01;;;;;;;0.5;0.5;;;;;;;16.4;100.0;101560;;;;
2022/06/04 00:36:00;;;;;;;0.5;0.5;;;;;;;16.4;100.0;101560;;;;
2022/06/04 00:37:00;;;;;;;0.5;0.5;;;;;;;16.4;100.0;101560;;;;
2022/06/04 00:38:00;;;;;;;0.5;0.5;;;;;;;16.6;100.0;101560;;;;
2022/06/04 00:39:00;;;;;;;0.5;0.5;;;;;;;16.6;100.0;101560;;;;
2022/06/04 00:40:00;;;;;;;0.5;0.5;;;;;;;16.5;100.0;101560;;;;
2022/06/04 00:41:07;;;;;;;0.5;0.5;;;;;;;16.5;100.0;101560;;;;
2022/06/04 00:42:04;;;;;;;0.5;0.5;;;;;;;16.2;100.0;101550;;;;
2022/06/04 00:43:00;;;;;;;0.5;0.5;;;;;;;16.2;100.0;101550;;;;
2022/06/04 00:44:04;;;;;;;0.5;0.5;;;;;;;16.1;100.0;101560;;;;
2022/06/04 00:45:10;;;;;;;0.5;0.5;;;;;;;16.1;100.0;101560;;;;
2022/06/04 00:46:10;;;;;;;0.4;0.4;;;;;;;16.0;100.0;101550;;;;
2022/06/04 00:47:07;;;;;;;0.4;0.4;;;;;;;16.0;100.0;101550;;;;
2022/06/04 00:48:01;;;;;;;0.4;0.4;;;;;;;16.2;100.0;101560;;;;
2022/06/04 00:49:00;;;;;;;0.4;0.4;;;;;;;16.2;100.0;101560;;;;
2022/06/04 00:50:00;;;;;;;0.4;0.4;;;;;;;16.1;100.0;101560;;;;
2022/06/04 00:51:00;;;;;;;0.4;0.4;;;;;;;16.1;100.0;101560;;;;
2022/06/04 00:52:01;;;;;;;0.4;0.4;;;;;;;16.0;100.0;101560;;;;
2022/06/04 00:53:01;;;;;;;0.4;0.4;;;;;;;16.0;100.0;101560;;;;
2022/06/04 00:54:00;;;;;;;0.4;0.4;;;;;;;16.0;100.0;101560;;;;
2022/06/04 00:55:00;;;;;;;0.4;0.4;;;;;;;16.0;100.0;101560;;;;
2022/06/04 00:56:07;;;;;;;0.4;0.4;;;;;;;15.8;100.0;101560;;;;
2022/06/04 00:57:06;;;;;;;0.4;0.4;;;;;;;15.8;100.0;101560;;;;
2022/06/04 00:58:03;;;;;;;0.4;0.4;;;;;;;15.9;100.0;101560;;;;
2022/06/04 00:59:07;;;;;;;0.4;0.4;;;;;;;15.9;100.0;101560;;;;
2022/06/04 01:00:10;;;;;;;0.4;0.4;;;;;;;15.9;100.0;101560;;;;
2022/06/04 01:01:04;;;;;;;0.4;0.4;;;;;;;15.9;100.0;101560;;;;
2022/06/04 01:02:11;;;;;;;0.4;0.4;;;;;;;15.8;100.0;101560;;;;
2022/06/04 01:03:09;;;;;;;0.4;0.4;;;;;;;15.8;100.0;101560;;;;
2022/06/04 01:04:03;;;;;;;0.4;0.4;;;;;;;15.7;100.0;101560;;;;
2022/06/04 01:05:00;;;;;;;0.4;0.4;;;;;;;15.7;100.0;101560;;;;
2022/06/04 01:06:07;;;;;;;0.3;0.3;;;;;;;15.8;100.0;101570;;;;
2022/06/04 01:07:03;;;;;;;0.3;0.3;;;;;;;15.8;100.0;101570;;;;
2022/06/04 01:08:10;;;;;;;0.3;0.3;;;;;;;15.7;100.0;101580;;;;
2022/06/04 01:09:00;;;;;;;0.3;0.3;;;;;;;15.7;100.0;101580;;;;
2022/06/04 01:10:07;;;;;;;0.3;0.3;;;;;;;15.8;100.0;101580;;;;
2022/06/04 01:11:01;;;;;;;0.3;0.3;;;;;;;15.8;100.0;101580;;;;
2022/06/04 01:13:10;;;;;;;0.3;0.3;;;;;;;15.7;100.0;101580;;;;
2022/06/04 01:14:00;;;;;;;0.3;0.3;;;;;;;15.8;100.0;101590;;;;
2022/06/04 01:15:01;;;;;;;0.3;0.3;;;;;;;15.8;100.0;101590;;;;
2022/06/04 01:16:07;;;;;;;0.3;0.3;;;;;;;15.8;100.0;101590;;;;
2022/06/04 01:17:05;;;;;;;0.3;0.3;;;;;;;15.8;100.0;101590;;;;
2022/06/04 01:18:10;;;;;;;0.3;0.3;;;;;;;15.6;100.0;101610;;;;
2022/06/04 01:19:10;;;;;;;0.3;0.3;;;;;;;15.6;100.0;101610;;;;
2022/06/04 01:20:07;;;;;;;0.3;0.3;;;;;;;15.7;100.0;101620;;;;
2022/06/04 01:21:10;;;;;;;0.3;0.3;;;;;;;15.7;100.0;101620;;;;
2022/06/04 01:22:10;;;;;;;0.3;0.3;;;;;;;16.0;100.0;101620;;;;
2022/06/04 01:23:09;;;;;;;0.3;0.3;;;;;;;16.0;100.0;101620;;;;
2022/06/04 01:24:10;;;;;;;0.3;0.3;;;;;;;15.9;100.0;101630;;;;
2022/06/04 01:25:10;;;;;;;0.3;0.3;;;;;;;15.9;100.0;101630;;;;
2022/06/04 01:26:10;;;;;;;0.3;0.3;;;;;;;15.5;100.0;101640;;;;
2022/06/04 01:27:00;;;;;;;0.3;0.3;;;;;;;15.5;100.0;101640;;;;
2022/06/04 01:28:02;;;;;;;0.3;0.3;;;;;;;15.4;100.0;101630;;;;
2022/06/04 01:29:03;;;;;;;0.3;0.3;;;;;;;15.4;100.0;101630;;;;
2022/06/04 01:30:03;;;;;;;0.3;0.3;;;;;;;15.5;100.0;101630;;;;
2022/06/04 01:31:03;;;;;;;0.3;0.3;;;;;;;15.5;100.0;101630;;;;
2022/06/04 01:32:03;;;;;;;0.3;0.3;;;;;;;15.6;100.0;101630;;;;
2022/06/04 01:33:03;;;;;;;0.3;0.3;;;;;;;15.6;100.0;101630;;;;
2022/06/04 01:34:02;;;;;;;0.3;0.3;;;;;;;15.5;100.0;101630;;;;
2022/06/04 01:35:05;;;;;;;0.3;0.3;;;;;;;15.5;100.0;101630;;;;
2022/06/04 01:36:03;;;;;;;0.3;0.3;;;;;;;15.6;100.0;101640;;;;
2022/06/04 01:37:04;;;;;;;0.3;0.3;;;;;;;15.6;100.0;101640;;;;
2022/06/04 01:38:09;;;;;;;0.3;0.3;;;;;;;15.7;100.0;101630;;;;
2022/06/04 01:39:04;;;;;;;0.3;0.3;;;;;;;15.7;100.0;101630;;;;
2022/06/04 01:41:03;;;;;;;0.3;0.3;;;;;;;15.7;100.0;101620;;;;
2022/06/04 01:42:02;;;;;;;0.3;0.3;;;;;;;15.6;100.0;101630;;;;
2022/06/04 01:43:01;;;;;;;0.3;0.3;;;;;;;15.6;100.0;101630;;;;
2022/06/04 01:44:01;;;;;;;0.3;0.3;;;;;;;15.4;100.0;101630;;;;
2022/06/04 01:45:01;;;;;;;0.3;0.3;;;;;;;15.4;100.0;101630;;;;
2022/06/04 01:46:07;;;;;;;0.4;0.4;;;;;;;15.5;100.0;101630;;;;
2022/06/04 01:47:04;;;;;;;0.4;0.4;;;;;;;15.5;100.0;101630;;;;
2022/06/04 01:48:01;;;;;;;0.4;0.4;;;;;;;15.6;100.0;101620;;;;
2022/06/04 01:49:07;;;;;;;0.4;0.4;;;;;;;15.6;100.0;101620;;;;
2022/06/04 01:50:02;;;;;;;0.4;0.4;;;;;;;15.6;100.0;101620;;;;
2022/06/04 01:51:03;;;;;;;0.4;0.4;;;;;;;15.6;100.0;101620;;;;
2022/06/04 01:52:04;;;;;;;0.4;0.4;;;;;;;15.6;100.0;101620;;;;
2022/06/04 01:53:02;;;;;;;0.4;0.4;;;;;;;15.6;100.0;101620;;;;
2022/06/04 01:54:02;;;;;;;0.4;0.4;;;;;;;15.5;100.0;101630;;;;
2022/06/04 01:55:04;;;;;;;0.4;0.4;;;;;;;15.5;100.0;101630;;;;
2022/06/04 01:56:03;;;;;;;0.4;0.4;;;;;;;15.3;100.0;101620;;;;
2022/06/04 01:57:04;;;;;;;0.4;0.4;;;;;;;15.3;100.0;101620;;;;
2022/06/04 01:58:03;;;;;;;0.4;0.4;;;;;;;15.3;100.0;101630;;;;
2022/06/04 01:59:05;;;;;;;0.4;0.4;;;;;;;15.3;100.0;101630;;;;
2022/06/04 02:00:10;;;;;;;0.4;0.4;;;;;;;15.2;100.0;101630;;;;
2022/06/04 02:01:09;;;;;;;0.4;0.4;;;;;;;15.2;100.0;101630;;;;
2022/06/04 02:02:03;;;;;;;0.4;0.4;;;;;;;15.4;100.0;101630;;;;
2022/06/04 02:03:05;;;;;;;0.4;0.4;;;;;;;15.4;100.0;101630;;;;
2022/06/04 02:04:09;;;;;;;0.4;0.4;;;;;;;15.3;100.0;101640;;;;
2022/06/04 02:05:01;;;;;;;0.4;0.4;;;;;;;15.3;100.0;101640;;;;
2022/06/04 02:06:05;;;;;;;0.3;0.3;;;;;;;15.2;100.0;101640;;;;
2022/06/04 02:08:02;;;;;;;0.3;0.3;;;;;;;15.4;100.0;101640;;;;
2022/06/04 02:09:07;;;;;;;0.3;0.3;;;;;;;15.4;100.0;101640;;;;
2022/06/04 02:10:05;;;;;;;0.3;0.3;;;;;;;15.2;100.0;101640;;;;
2022/06/04 02:11:05;;;;;;;0.3;0.3;;;;;;;15.2;100.0;101640;;;;
2022/06/04 02:12:02;;;;;;;0.3;0.3;;;;;;;15.3;100.0;101640;;;;
2022/06/04 02:13:02;;;;;;;0.3;0.3;;;;;;;15.3;100.0;101640;;;;
2022/06/04 02:14:04;;;;;;;0.3;0.3;;;;;;;15.3;100.0;101640;;;;
2022/06/04 02:15:04;;;;;;;0.3;0.3;;;;;;;15.3;100.0;101640;;;;
2022/06/04 02:16:03;;;;;;;0.3;0.3;;;;;;;15.3;100.0;101640;;;;
2022/06/04 02:17:04;;;;;;;0.3;0.3;;;;;;;15.3;100.0;101640;;;;
2022/06/04 02:18:02;;;;;;;0.3;0.3;;;;;;;15.2;100.0;101640;;;;
2022/06/04 02:19:00;;;;;;;0.3;0.3;;;;;;;15.2;100.0;101640;;;;
2022/06/04 02:20:00;;;;;;;0.3;0.3;;;;;;;15.3;100.0;101630;;;;
2022/06/04 02:21:01;;;;;;;0.3;0.3;;;;;;;15.3;100.0;101630;;;;
2022/06/04 02:22:01;;;;;;;0.3;0.3;;;;;;;15.0;100.0;101640;;;;
2022/06/04 02:23:00;;;;;;;0.3;0.3;;;;;;;15.0;100.0;101640;;;;
2022/06/04 02:24:00;;;;;;;0.3;0.3;;;;;;;15.1;100.0;101630;;;;
2022/06/04 02:25:00;;;;;;;0.3;0.3;;;;;;;15.1;100.0;101630;;;;
2022/06/04 02:26:00;;;;;;;0.4;0.4;;;;;;;15.1;100.0;101630;;;;
2022/06/04 02:27:01;;;;;;;0.4;0.4;;;;;;;15.1;100.0;101630;;;;
2022/06/04 02:28:00;;;;;;;0.4;0.4;;;;;;;15.1;100.0;101620;;;;
2022/06/04 02:29:01;;;;;;;0.4;0.4;;;;;;;15.1;100.0;101620;;;;
2022/06/04 02:30:00;;;;;;;0.4;0.4;;;;;;;15.1;100.0;101620;;;;
2022/06/04 02:31:10;;;;;;;0.4;0.4;;;;;;;15.1;100.0;101620;;;;
2022/06/04 02:32:07;;;;;;;0.4;0.4;;;;;;;15.1;100.0;101630;;;;
2022/06/04 02:33:06;;;;;;;0.4;0.4;;;;;;;15.1;100.0;101630;;;;
2022/06/04 02:34:08;;;;;;;0.4;0.4;;;;;;;15.0;100.0;101630;;;;
2022/06/04 02:35:03;;;;;;;0.4;0.4;;;;;;;15.0;100.0;101630;;;;
2022/06/04 02:36:10;;;;;;;0.4;0.4;;;;;;;15.2;100.0;101630;;;;
2022/06/04 02:37:08;;;;;;;0.4;0.4;;;;;;;15.2;100.0;101630;;;;
2022/06/04 02:38:05;;;;;;;0.4;0.4;;;;;;;14.9;100.0;101630;;;;
2022/06/04 02:39:01;;;;;;;0.4;0.4;;;;;;;14.9;100.0;101630;;;;
2022/06/04 02:40:01;;;;;;;0.4;0.4;;;;;;;14.9;100.0;101640;;;;
2022/06/04 02:41:03;;;;;;;0.4;0.4;;;;;;;14.9;100.0;101640;;;;
2022/06/04 02:42:01;;;;;;;0.4;0.4;;;;;;;15.0;100.0;101640;;;;
2022/06/04 02:43:00;;;;;;;0.4;0.4;;;;;;;15.0;100.0;101640;;;;
2022/06/04 02:44:10;;;;;;;0.4;0.4;;;;;;;14.9;100.0;101630;;;;
2022/06/04 02:45:05;;;;;;;0.4;0.4;;;;;;;14.9;100.0;101630;;;;
2022/06/04 02:46:07;;;;;;;0.5;0.5;;;;;;;14.9;100.0;101630;;;;
2022/06/04 02:47:03;;;;;;;0.5;0.5;;;;;;;14.9;100.0;101630;;;;
2022/06/04 02:48:01;;;;;;;0.5;0.5;;;;;;;14.8;100.0;101630;;;;
2022/06/04 02:49:00;;;;;;;0.5;0.5;;;;;;;14.8;100.0;101630;;;;
2022/06/04 02:50:02;;;;;;;0.5;0.5;;;;;;;15.0;100.0;101630;;;;
2022/06/04 02:51:04;;;;;;;0.5;0.5;;;;;;;15.0;100.0;101630;;;;
2022/06/04 02:52:00;;;;;;;0.5;0.5;;;;;;;15.1;100.0;101620;;;;
2022/06/04 02:53:01;;;;;;;0.5;0.5;;;;;;;15.1;100.0;101620;;;;
2022/06/04 02:54:02;;;;;;;0.5;0.5;;;;;;;15.0;100.0;101620;;;;
2022/06/04 02:55:10;;;;;;;0.5;0.5;;;;;;;15.0;100.0;101620;;;;
2022/06/04 02:56:02;;;;;;;0.5;0.5;;;;;;;14.7;100.0;101620;;;;
2022/06/04 02:57:01;;;;;;;0.5;0.5;;;;;;;14.7;100.0;101620;;;;
2022/06/04 02:58:05;;;;;;;0.5;0.5;;;;;;;14.8;100.0;101610;;;;
2022/06/04 02:59:02;;;;;;;0.5;0.5;;;;;;;14.8;100.0;101610;;;;
2022/06/04 03:00:00;;;;;;;0.5;0.5;;;;;;;14.8;100.0;101610;;;;
2022/06/04 03:01:02;;;;;;;0.5;0.5;;;;;;;14.8;100.0;101610;;;;
2022/06/04 03:02:01;;;;;;;0.5;0.5;;;;;;;14.8;100.0;101610;;;;
2022/06/04 03:03:00;;;;;;;0.5;0.5;;;;;;;14.8;100.0;101610;;;;
2022/06/04 03:04:01;;;;;;;0.5;0.5;;;;;;;14.6;100.0;101610;;;;
2022/06/04 03:05:06;;;;;;;0.5;0.5;;;;;;;14.6;100.0;101610;;;;
2022/06/04 03:06:01;;;;;;;1.1;1.0;;;;;;;14.6;100.0;101600;;;;
2022/06/04 03:07:03;;;;;;;1.1;1.0;;;;;;;14.6;100.0;101600;;;;
2022/06/04 03:08:03;;;;;;;1.1;1.0;;;;;;;14.9;100.0;101600;;;;
2022/06/04 03:09:02;;;;;;;1.1;1.0;;;;;;;14.9;100.0;101600;;;;
2022/06/04 03:10:06;;;;;;;1.1;1.0;;;;;;;14.9;100.0;101590;;;;
2022/06/04 03:11:00;;;;;;;1.1;1.0;;;;;;;14.9;100.0;101590;;;;
2022/06/04 03:12:00;;;;;;;1.1;1.0;;;;;;;14.9;100.0;101590;;;;
2022/06/04 03:13:00;;;;;;;1.1;1.0;;;;;;;14.9;100.0;101590;;;;
2022/06/04 03:14:00;;;;;;;1.1;1.0;;;;;;;14.8;100.0;101600;;;;
2022/06/04 03:15:00;;;;;;;1.1;1.0;;;;;;;14.8;100.0;101600;;;;
2022/06/04 03:16:00;;;;;;;1.1;1.0;;;;;;;14.7;100.0;101600;;;;
2022/06/04 03:17:00;;;;;;;1.1;1.0;;;;;;;14.7;100.0;101600;;;;
2022/06/04 03:18:00;;;;;;;1.1;1.0;;;;;;;14.8;100.0;101600;;;;
2022/06/04 03:19:00;;;;;;;1.1;1.0;;;;;;;14.8;100.0;101600;;;;
2022/06/04 03:20:00;;;;;;;1.1;1.0;;;;;;;14.9;100.0;101600;;;;
2022/06/04 03:21:00;;;;;;;1.1;1.0;;;;;;;14.9;100.0;101600;;;;
2022/06/04 03:22:00;;;;;;;1.1;1.0;;;;;;;14.7;100.0;101600;;;;
2022/06/04 03:23:00;;;;;;;1.1;1.0;;;;;;;14.7;100.0;101600;;;;
2022/06/04 03:24:00;;;;;;;1.1;1.0;;;;;;;14.5;100.0;101600;;;;
2022/06/04 03:25:00;;;;;;;1.1;1.0;;;;;;;14.5;100.0;101600;;;;
2022/06/04 03:26:00;;;;;;;0.4;0.4;;;;;;;14.7;100.0;101590;;;;
2022/06/04 03:27:00;;;;;;;0.4;0.4;;;;;;;14.7;100.0;101590;;;;
2022/06/04 03:28:04;;;;;;;0.4;0.4;;;;;;;14.7;100.0;101590;;;;
2022/06/04 03:29:00;;;;;;;0.4;0.4;;;;;;;14.7;100.0;101590;;;;
2022/06/04 03:30:00;;;;;;;0.4;0.4;;;;;;;14.7;100.0;101590;;;;
2022/06/04 03:31:00;;;;;;;0.4;0.4;;;;;;;14.7;100.0;101590;;;;
2022/06/04 03:32:00;;;;;;;0.4;0.4;;;;;;;14.6;100.0;101590;;;;
2022/06/04 03:33:00;;;;;;;0.4;0.4;;;;;;;14.6;100.0;101590;;;;
2022/06/04 03:34:00;;;;;;;0.4;0.4;;;;;;;14.6;100.0;101590;;;;
2022/06/04 03:35:00;;;;;;;0.4;0.4;;;;;;;14.6;100.0;101590;;;;
2022/06/04 03:36:00;;;;;;;0.4;0.4;;;;;;;14.6;100.0;101600;;;;
2022/06/04 03:37:00;;;;;;;0.4;0.4;;;;;;;14.6;100.0;101600;;;;
2022/06/04 03:38:00;;;;;;;0.4;0.4;;;;;;;14.7;100.0;101600;;;;
2022/06/04 03:39:00;;;;;;;0.4;0.4;;;;;;;14.7;100.0;101600;;;;
2022/06/04 03:40:00;;;;;;;0.4;0.4;;;;;;;14.5;100.0;101600;;;;
2022/06/04 03:41:00;;;;;;;0.4;0.4;;;;;;;14.5;100.0;101600;;;;
2022/06/04 03:42:01;;;;;;;0.4;0.4;;;;;;;14.7;100.0;101600;;;;
2022/06/04 03:43:00;;;;;;;0.4;0.4;;;;;;;14.7;100.0;101600;;;;
2022/06/04 03:44:00;;;;;;;0.4;0.4;;;;;;;14.6;100.0;101600;;;;
2022/06/04 03:45:00;;;;;;;0.4;0.4;;;;;;;14.6;100.0;101600;;;;
2022/06/04 03:46:00;;;;;;;0.5;0.5;;;;;;;14.7;100.0;101600;;;;
2022/06/04 03:47:00;;;;;;;0.5;0.5;;;;;;;14.7;100.0;101600;;;;
2022/06/04 03:48:00;;;;;;;0.5;0.5;;;;;;;14.8;100.0;101610;;;;
2022/06/04 03:49:00;;;;;;;0.5;0.5;;;;;;;14.8;100.0;101610;;;;
2022/06/04 03:50:00;;;;;;;0.5;0.5;;;;;;;14.8;100.0;101600;;;;
2022/06/04 03:51:00;;;;;;;0.5;0.5;;;;;;;14.8;100.0;101600;;;;
2022/06/04 03:52:01;;;;;;;0.5;0.5;;;;;;;14.6;100.0;101600;;;;
2022/06/04 03:53:00;;;;;;;0.5;0.5;;;;;;;14.6;100.0;101600;;;;
2022/06/04 03:54:00;;;;;;;0.5;0.5;;;;;;;14.6;100.0;101600;;;;
2022/06/04 03:55:01;;;;;;;0.5;0.5;;;;;;;14.6;100.0;101600;;;;
2022/06/04 03:56:00;;;;;;;0.5;0.5;;;;;;;14.4;100.0;101600;;;;
2022/06/04 03:58:00;;;;;;;0.5;0.5;;;;;;;14.4;100.0;101610;;;;
2022/06/04 03:59:00;;;;;;;0.5;0.5;;;;;;;14.4;100.0;101610;;;;
2022/06/04 04:00:00;;;;;;;0.5;0.5;;;;;;;14.5;100.0;101610;;;;
2022/06/04 04:01:00;;;;;;;0.5;0.5;;;;;;;14.5;100.0;101610;;;;
2022/06/04 04:02:00;;;;;;;0.5;0.5;;;;;;;14.4;100.0;101610;;;;
2022/06/04 04:03:01;;;;;;;0.5;0.5;;;;;;;14.4;100.0;101610;;;;
2022/06/04 04:04:01;;;;;;;0.5;0.5;;;;;;;14.5;100.0;101610;;;;
2022/06/04 04:05:00;;;;;;;0.5;0.5;;;;;;;14.5;100.0;101610;;;;
2022/06/04 04:06:00;;;;;;;0.5;0.5;;;;;;;14.6;100.0;101610;;;;
2022/06/04 04:07:00;;;;;;;0.5;0.5;;;;;;;14.6;100.0;101610;;;;
2022/06/04 04:08:01;;;;;;;0.5;0.5;;;;;;;14.3;100.0;101600;;;;
2022/06/04 04:09:00;;;;;;;0.5;0.5;;;;;;;14.3;100.0;101600;;;;
2022/06/04 04:10:00;;;;;;;0.5;0.5;;;;;;;14.1;100.0;101610;;;;
2022/06/04 04:11:00;;;;;;;0.5;0.5;;;;;;;14.1;100.0;101610;;;;
2022/06/04 04:12:00;;;;;;;0.5;0.5;;;;;;;14.2;100.0;101600;;;;
2022/06/04 04:13:00;;;;;;;0.5;0.5;;;;;;;14.2;100.0;101600;;;;
2022/06/04 04:14:00;;;;;;;0.5;0.5;;;;;;;14.3;100.0;101620;;;;
2022/06/04 04:15:00;;;;;;;0.5;0.5;;;;;;;14.3;100.0;101620;;;;
2022/06/04 04:16:00;;;;;;;0.5;0.5;;;;;;;14.2;100.0;101610;;;;
2022/06/04 04:17:00;;;;;;;0.5;0.5;;;;;;;14.2;100.0;101610;;;;
2022/06/04 04:18:00;;;;;;;0.5;0.5;;;;;;;14.3;100.0;101610;;;;
2022/06/04 04:19:00;;;;;;;0.5;0.5;;;;;;;14.3;100.0;101610;;;;
2022/06/04 04:20:00;;;;;;;0.5;0.5;;;;;;;14.5;100.0;101610;;;;
2022/06/04 04:21:10;;;;;;;0.5;0.5;;;;;;;14.5;100.0;101610;;;;
2022/06/04 04:22:00;;;;;;;0.5;0.5;;;;;;;14.4;100.0;101620;;;;
2022/06/04 04:23:00;;;;;;;0.5;0.5;;;;;;;14.4;100.0;101620;;;;
2022/06/04 04:24:00;;;;;;;0.5;0.5;;;;;;;14.5;100.0;101620;;;;
2022/06/04 04:25:00;;;;;;;0.5;0.5;;;;;;;14.5;100.0;101620;;;;
2022/06/04 04:26:00;;;;;;;0.8;0.8;;;;;;;14.4;100.0;101620;;;;
2022/06/04 04:27:00;;;;;;;0.8;0.8;;;;;;;14.4;100.0;101620;;;;
2022/06/04 04:28:00;;;;;;;0.8;0.8;;;;;;;14.6;100.0;101630;;;;
2022/06/04 04:29:00;;;;;;;0.8;0.8;;;;;;;14.6;100.0;101630;;;;
2022/06/04 04:30:00;;;;;;;0.8;0.8;;;;;;;14.6;100.0;101630;;;;
2022/06/04 04:31:00;;;;;;;0.8;0.8;;;;;;;14.6;100.0;101630;;;;
2022/06/04 04:32:00;;;;;;;0.8;0.8;;;;;;;14.6;100.0;101630;;;;
2022/06/04 04:33:00;;;;;;;0.8;0.8;;;;;;;14.6;100.0;101630;;;;
2022/06/04 04:34:00;;;;;;;0.8;0.8;;;;;;;14.6;100.0;101640;;;;
2022/06/04 04:35:00;;;;;;;0.8;0.8;;;;;;;14.6;100.0;101640;;;;
2022/06/04 04:36:00;;;;;;;0.8;0.8;;;;;;;14.7;100.0;101640;;;;
2022/06/04 04:37:00;;;;;;;0.8;0.8;;;;;;;14.7;100.0;101640;;;;
2022/06/04 04:38:00;;;;;;;0.8;0.8;;;;;;;14.6;100.0;101640;;;;
2022/06/04 04:39:00;;;;;;;0.8;0.8;;;;;;;14.6;100.0;101640;;;;
2022/06/04 04:40:00;;;;;;;0.8;0.8;;;;;;;14.4;100.0;101650;;;;
2022/06/04 04:41:00;;;;;;;0.8;0.8;;;;;;;14.4;100.0;101650;;;;
2022/06/04 04:42:00;;;;;;;0.8;0.8;;;;;;;14.5;100.0;101640;;;;
2022/06/04 04:43:00;;;;;;;0.8;0.8;;;;;;;14.5;100.0;101640;;;;
2022/06/04 04:44:00;;;;;;;0.8;0.8;;;;;;;14.4;100.0;101630;;;;
2022/06/04 04:45:00;;;;;;;0.8;0.8;;;;;;;14.4;100.0;101630;;;;
2022/06/04 04:46:01;;;;;;;0.9;0.9;;;;;;;14.5;100.0;101630;;;;
2022/06/04 04:47:00;;;;;;;0.9;0.9;;;;;;;14.5;100.0;101630;;;;
2022/06/04 04:48:00;;;;;;;0.9;0.9;;;;;;;14.6;100.0;101630;;;;
2022/06/04 04:49:00;;;;;;;0.9;0.9;;;;;;;14.6;100.0;101630;;;;
2022/06/04 04:50:00;;;;;;;0.9;0.9;;;;;;;14.6;100.0;101630;;;;
2022/06/04 04:51:00;;;;;;;0.9;0.9;;;;;;;14.6;100.0;101630;;;;
2022/06/04 04:52:00;;;;;;;0.9;0.9;;;;;;;14.5;100.0;101640;;;;
2022/06/04 04:53:03;;;;;;;0.9;0.9;;;;;;;14.5;100.0;101640;;;;
2022/06/04 04:54:01;;;;;;;0.9;0.9;;;;;;;14.5;100.0;101640;;;;
2022/06/04 04:55:00;;;;;;;0.9;0.9;;;;;;;14.5;100.0;101640;;;;
2022/06/04 04:56:00;;;;;;;0.9;0.9;;;;;;;14.4;100.0;101640;;;;
2022/06/04 04:57:00;;;;;;;0.9;0.9;;;;;;;14.4;100.0;101640;;;;
2022/06/04 04:58:01;;;;;;;0.9;0.9;;;;;;;14.3;100.0;101640;;;;
2022/06/04 04:59:00;;;;;;;0.9;0.9;;;;;;;14.3;100.0;101640;;;;
2022/06/04 05:00:00;;;;;;;0.9;0.9;;;;;;;14.3;100.0;101650;;;;
2022/06/04 05:01:00;;;;;;;0.9;0.9;;;;;;;14.3;100.0;101650;;;;
2022/06/04 05:02:00;;;;;;;0.9;0.9;;;;;;;14.2;100.0;101650;;;;
2022/06/04 05:03:00;;;;;;;0.9;0.9;;;;;;;14.2;100.0;101650;;;;
2022/06/04 05:04:03;;;;;;;0.9;0.9;;;;;;;14.0;100.0;101660;;;;
2022/06/04 05:05:00;;;;;;;0.9;0.9;;;;;;;14.0;100.0;101660;;;;
2022/06/04 05:06:02;;;;;;;0.5;0.5;;;;;;;14.2;100.0;101660;;;;
2022/06/04 05:07:00;;;;;;;0.5;0.5;;;;;;;14.2;100.0;101660;;;;
2022/06/04 05:08:00;;;;;;;0.5;0.5;;;;;;;14.3;100.0;101660;;;;
2022/06/04 05:09:00;;;;;;;0.5;0.5;;;;;;;14.3;100.0;101660;;;;
2022/06/04 05:10:00;;;;;;;0.5;0.5;;;;;;;14.2;100.0;101660;;;;
2022/06/04 05:11:07;;;;;;;0.5;0.5;;;;;;;14.2;100.0;101660;;;;
2022/06/04 05:12:00;;;;;;;0.5;0.5;;;;;;;14.5;100.0;101660;;;;
2022/06/04 05:13:00;;;;;;;0.5;0.5;;;;;;;14.5;100.0;101660;;;;
2022/06/04 05:14:00;;;;;;;0.5;0.5;;;;;;;14.7;100.0;101670;;;;
2022/06/04 05:15:00;;;;;;;0.5;0.5;;;;;;;14.7;100.0;101670;;;;
2022/06/04 05:16:00;;;;;;;0.5;0.5;;;;;;;14.7;100.0;101670;;;;
2022/06/04 05:17:00;;;;;;;0.5;0.5;;;;;;;14.7;100.0;101670;;;;
2022/06/04 05:18:00;;;;;;;0.5;0.5;;;;;;;14.7;100.0;101670;;;;
2022/06/04 05:19:01;;;;;;;0.5;0.5;;;;;;;14.7;100.0;101670;;;;
2022/06/04 05:20:00;;;;;;;0.5;0.5;;;;;;;14.6;100.0;101680;;;;
2022/06/04 05:21:11;;;;;;;0.5;0.5;;;;;;;14.6;100.0;101680;;;;
2022/06/04 05:22:00;;;;;;;0.5;0.5;;;;;;;14.6;100.0;101680;;;;
2022/06/04 05:23:00;;;;;;;0.5;0.5;;;;;;;14.6;100.0;101680;;;;
2022/06/04 05:24:00;;;;;;;0.5;0.5;;;;;;;14.6;100.0;101670;;;;
2022/06/04 05:25:00;;;;;;;0.5;0.5;;;;;;;14.6;100.0;101670;;;;
2022/06/04 05:26:00;;;;;;;0.4;0.4;;;;;;;14.6;100.0;101670;;;;
2022/06/04 05:27:02;;;;;;;0.4;0.4;;;;;;;14.6;100.0;101670;;;;
2022/06/04 05:28:00;;;;;;;0.4;0.4;;;;;;;14.6;100.0;101670;;;;
2022/06/04 05:29:00;;;;;;;0.4;0.4;;;;;;;14.6;100.0;101670;;;;
2022/06/04 05:30:00;;;;;;;0.4;0.4;;;;;;;14.5;100.0;101670;;;;
2022/06/04 05:31:00;;;;;;;0.4;0.4;;;;;;;14.5;100.0;101670;;;;
2022/06/04 05:32:00;;;;;;;0.4;0.4;;;;;;;14.6;100.0;101670;;;;
2022/06/04 05:33:01;;;;;;;0.4;0.4;;;;;;;14.6;100.0;101670;;;;
2022/06/04 05:34:00;;;;;;;0.4;0.4;;;;;;;14.5;100.0;101660;;;;
2022/06/04 05:35:00;;;;;;;0.4;0.4;;;;;;;14.5;100.0;101660;;;;
2022/06/04 05:36:00;;;;;;;0.4;0.4;;;;;;;14.4;100.0;101660;;;;
2022/06/04 05:37:01;;;;;;;0.4;0.4;;;;;;;14.4;100.0;101660;;;;
2022/06/04 05:38:00;;;;;;;0.4;0.4;;;;;;;14.5;100.0;101660;;;;
2022/06/04 05:39:00;;;;;;;0.4;0.4;;;;;;;14.5;100.0;101660;;;;
2022/06/04 05:40:00;;;;;;;0.4;0.4;;;;;;;14.6;100.0;101660;;;;
2022/06/04 05:41:01;;;;;;;0.4;0.4;;;;;;;14.6;100.0;101660;;;;
2022/06/04 05:42:00;;;;;;;0.4;0.4;;;;;;;14.7;100.0;101670;;;;
2022/06/04 05:43:00;;;;;;;0.4;0.4;;;;;;;14.7;100.0;101670;;;;
2022/06/04 05:44:00;;;;;;;0.4;0.4;;;;;;;14.8;100.0;101660;;;;
2022/06/04 05:45:00;;;;;;;0.4;0.4;;;;;;;14.8;100.0;101660;;;;
2022/06/04 05:46:02;;;;;;;0.5;0.5;;;;;;;15.0;100.0;101670;;;;
2022/06/04 05:47:00;;;;;;;0.5;0.5;;;;;;;15.0;100.0;101670;;;;
2022/06/04 05:48:00;;;;;;;0.5;0.5;;;;;;;14.9;100.0;101670;;;;
2022/06/04 05:49:00;;;;;;;0.5;0.5;;;;;;;14.9;100.0;101670;;;;
2022/06/04 05:50:00;;;;;;;0.5;0.5;;;;;;;14.9;100.0;101680;;;;
2022/06/04 05:51:00;;;;;;;0.5;0.5;;;;;;;14.9;100.0;101680;;;;
2022/06/04 05:52:00;;;;;;;0.5;0.5;;;;;;;14.9;100.0;101690;;;;
2022/06/04 05:53:00;;;;;;;0.5;0.5;;;;;;;14.9;100.0;101690;;;;
2022/06/04 05:54:07;;;;;;;0.5;0.5;;;;;;;14.9;100.0;101690;;;;
2022/06/04 05:55:00;;;;;;;0.5;0.5;;;;;;;14.9;100.0;101690;;;;
2022/06/04 05:56:00;;;;;;;0.5;0.5;;;;;;;14.7;100.0;101690;;;;
2022/06/04 05:57:00;;;;;;;0.5;0.5;;;;;;;14.7;100.0;101690;;;;
2022/06/04 05:58:00;;;;;;;0.5;0.5;;;;;;;14.8;100.0;101690;;;;
2022/06/04 05:59:02;;;;;;;0.5;0.5;;;;;;;14.8;100.0;101690;;;;
2022/06/04 06:00:00;;;;;;;0.5;0.5;;;;;;;15.0;100.0;101690;;;;
2022/06/04 06:01:01;;;;;;;0.5;0.5;;;;;;;15.0;100.0;101690;;;;
2022/06/04 06:02:01;;;;;;;0.5;0.5;;;;;;;14.8;100.0;101690;;;;
2022/06/04 06:03:00;;;;;;;0.5;0.5;;;;;;;14.8;100.0;101690;;;;
2022/06/04 06:04:00;;;;;;;0.5;0.5;;;;;;;14.5;100.0;101700;;;;
2022/06/04 06:05:00;;;;;;;0.5;0.5;;;;;;;14.5;100.0;101700;;;;
2022/06/04 06:06:01;;;;;;;0.6;0.6;;;;;;;14.5;100.0;101690;;;;
2022/06/04 06:07:00;;;;;;;0.6;0.6;;;;;;;14.5;100.0;101690;;;;
2022/06/04 06:08:00;;;;;;;0.6;0.6;;;;;;;14.5;100.0;101700;;;;
2022/06/04 06:09:04;;;;;;;0.6;0.6;;;;;;;14.5;100.0;101700;;;;
2022/06/04 06:10:00;;;;;;;0.6;0.6;;;;;;;14.5;100.0;101700;;;;
2022/06/04 06:11:05;;;;;;;0.6;0.6;;;;;;;14.5;100.0;101700;;;;
2022/06/04 06:12:00;;;;;;;0.6;0.6;;;;;;;14.4;100.0;101690;;;;
2022/06/04 06:13:00;;;;;;;0.6;0.6;;;;;;;14.4;100.0;101690;;;;
2022/06/04 06:14:00;;;;;;;0.6;0.6;;;;;;;14.7;100.0;101700;;;;
2022/06/04 06:15:00;;;;;;;0.6;0.6;;;;;;;14.7;100.0;101700;;;;
2022/06/04 06:16:08;;;;;;;0.6;0.6;;;;;;;15.0;100.0;101700;;;;
2022/06/04 06:17:00;;;;;;;0.6;0.6;;;;;;;15.0;100.0;101700;;;;
2022/06/04 06:18:00;;;;;;;0.6;0.6;;;;;;;15.0;100.0;101700;;;;
2022/06/04 06:19:00;;;;;;;0.6;0.6;;;;;;;15.0;100.0;101700;;;;
2022/06/04 06:20:00;;;;;;;0.6;0.6;;;;;;;15.1;100.0;101710;;;;
2022/06/04 06:21:04;;;;;;;0.6;0.6;;;;;;;15.1;100.0;101710;;;;
2022/06/04 06:22:00;;;;;;;0.6;0.6;;;;;;;15.2;100.0;101710;;;;
2022/06/04 06:23:00;;;;;;;0.6;0.6;;;;;;;15.2;100.0;101710;;;;
2022/06/04 06:24:00;;;;;;;0.6;0.6;;;;;;;15.2;100.0;101710;;;;
2022/06/04 06:25:04;;;;;;;0.4;0.4;;;;;;;15.2;100.0;101710;;;;
2022/06/04 06:26:04;;;;;;;0.4;0.4;;;;;;;15.1;100.0;101710;;;;
2022/06/04 06:27:00;;;;;;;0.4;0.4;;;;;;;15.1;100.0;101710;;;;
2022/06/04 06:28:00;;;;;;;0.4;0.4;;;;;;;14.9;100.0;101710;;;;
2022/06/04 06:29:00;;;;;;;0.4;0.4;;;;;;;14.9;100.0;101710;;;;
2022/06/04 06:30:00;;;;;;;0.4;0.4;;;;;;;14.8;100.0;101710;;;;
2022/06/04 06:31:00;;;;;;;0.4;0.4;;;;;;;14.8;100.0;101710;;;;
2022/06/04 06:32:00;;;;;;;0.4;0.4;;;;;;;14.9;100.0;101710;;;;